Time;durP1;ratioP1;P1;durP2;ratioP2;P2;SDS_P1;SDS_P2;PMS_P1;PMS_P2;Temp;Humidity;BMP_temperature;BMP_pressure;BME280_temperature;BME280_humidity;BME280_pressure;Samples;Min_cycle;Max_cycle;Signal;HPM_P1;HPM_P2
2023/02/16 00:00:42;;;;;;;58.70;32.90;;;;;;;;;;4970095;28;20554;-75
2023/02/16 00:03:21;;;;;;;56.77;34.60;;;;;;;;;;4965636;28;20220;-75
2023/02/16 00:05:47;;;;;;;59.90;34.57;;;;;;;;;;4947745;28;20683;-75
2023/02/16 00:08:12;;;;;;;62.47;34.10;;;;;;;;;;4959355;28;20590;-75
2023/02/16 00:10:37;;;;;;;56.37;34.43;;;;;;;;;;4955899;28;20188;-74
2023/02/16 00:16:11;;;;;;;53.83;33.53;;;;;;;;;;4973725;28;20653;-74
2023/02/16 00:18:37;;;;;;;58.00;32.83;;;;;;;;;;4974621;28;20295;-74
2023/02/16 00:21:02;;;;;;;57.73;33.87;;;;;;;;;;4976191;28;20208;-74
2023/02/16 00:23:27;;;;;;;58.90;35.90;;;;;;;;;;4975685;28;20268;-74
2023/02/16 00:25:52;;;;;;;69.33;36.40;;;;;;;;;;4963677;28;20223;-74
2023/02/16 00:28:19;;;;;;;56.80;33.47;;;;;;;;;;4979019;28;20294;-76
2023/02/16 00:30:45;;;;;;;62.10;35.67;;;;;;;;;;4975937;28;20255;-73
2023/02/16 00:33:13;;;;;;;60.43;36.57;;;;;;;;;;4974441;28;20332;-75
2023/02/16 00:35:39;;;;;;;67.10;37.53;;;;;;;;;;4979869;28;20234;-74
2023/02/16 00:38:04;;;;;;;62.13;35.73;;;;;;;;;;4981292;28;20240;-74
2023/02/16 00:40:30;;;;;;;63.80;36.20;;;;;;;;;;4973310;28;20207;-74
2023/02/16 00:42:56;;;;;;;65.03;37.33;;;;;;;;;;4967892;28;20184;-74
2023/02/16 00:45:21;;;;;;;63.53;37.50;;;;;;;;;;4972698;28;20238;-74
2023/02/16 00:47:48;;;;;;;60.67;35.07;;;;;;;;;;4976656;28;20240;-74
2023/02/16 00:50:24;;;;;;;60.20;36.10;;;;;;;;;;4976021;28;20718;-74
2023/02/16 00:52:50;;;;;;;63.60;38.57;;;;;;;;;;4974671;28;20181;-74
2023/02/16 00:55:17;;;;;;;67.37;35.67;;;;;;;;;;4969364;28;20193;-74
2023/02/16 00:58:02;;;;;;;63.97;34.40;;;;;;;;;;4957004;28;20688;-73
2023/02/16 01:00:32;;;;;;;62.67;36.03;;;;;;;;;;4961117;28;20258;-74
2023/02/16 01:02:59;;;;;;;66.53;36.40;;;;;;;;;;4959420;28;20650;-77
2023/02/16 01:05:24;;;;;;;59.20;35.03;;;;;;;;;;4969550;28;20216;-74
2023/02/16 01:13:40;;;;;;;63.83;35.17;;;;;;;;;;5002196;28;20175;-74
2023/02/16 01:16:10;;;;;;;61.77;35.00;;;;;;;;;;4972556;28;20239;-74
2023/02/16 01:18:35;;;;;;;61.87;36.27;;;;;;;;;;4972812;28;20250;-76
2023/02/16 01:21:00;;;;;;;63.37;35.50;;;;;;;;;;4971967;28;20555;-76
2023/02/16 01:23:26;;;;;;;62.83;36.67;;;;;;;;;;4974177;28;20216;-76
2023/02/16 01:25:51;;;;;;;58.60;34.83;;;;;;;;;;4980231;28;20200;-76
2023/02/16 01:28:18;;;;;;;62.53;33.27;;;;;;;;;;4971808;28;20562;-76
2023/02/16 01:30:43;;;;;;;62.47;35.43;;;;;;;;;;4978857;28;20272;-77
2023/02/16 01:33:08;;;;;;;65.33;36.80;;;;;;;;;;4972366;28;20204;-77
2023/02/16 01:35:34;;;;;;;61.70;36.50;;;;;;;;;;4973093;28;20183;-74
2023/02/16 01:37:59;;;;;;;70.33;37.77;;;;;;;;;;4966012;28;20244;-75
2023/02/16 01:40:33;;;;;;;63.23;36.90;;;;;;;;;;4974019;28;20215;-74
2023/02/16 01:43:19;;;;;;;68.27;37.07;;;;;;;;;;4978266;28;20211;-75
2023/02/16 01:46:11;;;;;;;61.03;37.00;;;;;;;;;;4973673;28;20214;-75
2023/02/16 01:48:36;;;;;;;62.93;35.00;;;;;;;;;;4963062;28;20227;-75
2023/02/16 01:51:10;;;;;;;60.23;36.23;;;;;;;;;;4977800;28;20263;-74
2023/02/16 01:53:39;;;;;;;62.03;36.67;;;;;;;;;;4970719;28;20186;-75
2023/02/16 01:56:10;;;;;;;62.83;35.40;;;;;;;;;;4971344;28;20588;-75
2023/02/16 01:58:41;;;;;;;56.17;34.57;;;;;;;;;;4969499;28;20739;-75
2023/02/16 02:01:26;;;;;;;59.53;35.27;;;;;;;;;;4971127;28;20263;-75
2023/02/16 02:06:36;;;;;;;57.00;34.67;;;;;;;;;;4973210;28;20235;-75
2023/02/16 02:09:10;;;;;;;63.27;34.53;;;;;;;;;;4972114;28;20208;-75
2023/02/16 02:11:40;;;;;;;58.83;34.73;;;;;;;;;;4972529;28;20218;-76
2023/02/16 02:14:12;;;;;;;54.47;32.23;;;;;;;;;;4969783;28;20173;-76
2023/02/16 02:16:37;;;;;;;59.87;35.00;;;;;;;;;;4970645;28;20185;-76
2023/02/16 02:19:02;;;;;;;54.57;32.37;;;;;;;;;;4972446;28;20196;-75
2023/02/16 02:24:24;;;;;;;59.20;34.13;;;;;;;;;;4969668;28;20223;-76
2023/02/16 02:27:01;;;;;;;58.13;33.47;;;;;;;;;;4971803;28;20181;-74
2023/02/16 02:29:45;;;;;;;54.93;34.03;;;;;;;;;;4971374;28;20192;-75
2023/02/16 02:32:10;;;;;;;55.90;34.47;;;;;;;;;;4980230;28;20230;-75
2023/02/16 02:34:44;;;;;;;51.10;32.83;;;;;;;;;;4965947;28;20180;-75
2023/02/16 02:37:13;;;;;;;51.10;31.63;;;;;;;;;;4979274;28;20179;-75
2023/02/16 02:39:45;;;;;;;57.03;34.27;;;;;;;;;;4975086;28;20258;-75
2023/02/16 02:42:31;;;;;;;52.83;33.17;;;;;;;;;;4994097;28;20184;-76
2023/02/16 02:44:59;;;;;;;52.03;32.67;;;;;;;;;;4971998;28;20259;-76
2023/02/16 02:47:35;;;;;;;57.10;34.13;;;;;;;;;;4973269;28;20180;-75
2023/02/16 02:50:00;;;;;;;55.47;34.00;;;;;;;;;;4974022;28;20279;-75
2023/02/16 02:52:25;;;;;;;54.27;33.40;;;;;;;;;;4979287;28;20176;-75
2023/02/16 03:00:39;;;;;;;58.63;33.13;;;;;;;;;;4966562;28;20262;-75
2023/02/16 03:03:18;;;;;;;56.80;34.33;;;;;;;;;;4971361;28;20204;-74
2023/02/16 03:05:45;;;;;;;54.93;32.40;;;;;;;;;;4970516;28;20208;-77
2023/02/16 03:08:15;;;;;;;58.23;34.43;;;;;;;;;;4971101;28;20262;-76
2023/02/16 03:13:37;;;;;;;59.43;34.67;;;;;;;;;;4973586;28;20203;-76
2023/02/16 03:16:06;;;;;;;56.33;34.47;;;;;;;;;;4970978;28;20180;-76
2023/02/16 03:29:32;;;;;;;51.07;32.47;;;;;;;;;;4967126;28;20198;-76
2023/02/16 03:31:57;;;;;;;53.13;31.17;;;;;;;;;;4974614;28;20180;-77
2023/02/16 03:34:23;;;;;;;53.40;31.27;;;;;;;;;;4965467;28;20184;-76
2023/02/16 03:36:49;;;;;;;58.17;34.43;;;;;;;;;;4969876;28;20199;-76
2023/02/16 03:39:15;;;;;;;52.97;33.67;;;;;;;;;;4977655;28;20216;-79
2023/02/16 03:41:42;;;;;;;60.53;33.50;;;;;;;;;;4976399;28;20188;-77
2023/02/16 03:44:07;;;;;;;57.80;33.23;;;;;;;;;;4972684;28;20191;-76
2023/02/16 03:46:33;;;;;;;50.83;32.77;;;;;;;;;;4969629;28;20177;-76
2023/02/16 03:48:58;;;;;;;57.20;33.47;;;;;;;;;;4971830;28;20204;-77
2023/02/16 03:51:23;;;;;;;55.20;33.17;;;;;;;;;;4970256;28;20184;-76
2023/02/16 03:53:49;;;;;;;58.53;33.37;;;;;;;;;;4973485;28;20713;-77
2023/02/16 03:56:14;;;;;;;49.47;32.10;;;;;;;;;;4970331;28;20176;-77
2023/02/16 03:58:39;;;;;;;54.80;32.33;;;;;;;;;;4973430;28;20682;-77
2023/02/16 04:01:04;;;;;;;52.57;32.87;;;;;;;;;;4970911;28;20646;-76
2023/02/16 04:03:29;;;;;;;54.83;34.03;;;;;;;;;;4972454;28;20188;-77
2023/02/16 04:05:55;;;;;;;57.47;32.10;;;;;;;;;;4979905;28;20249;-76
2023/02/16 04:08:20;;;;;;;51.37;33.57;;;;;;;;;;4970325;28;20218;-76
2023/02/16 04:10:46;;;;;;;52.73;33.90;;;;;;;;;;4975601;28;20650;-76
2023/02/16 04:13:11;;;;;;;51.80;32.73;;;;;;;;;;4977935;28;20176;-78
2023/02/16 04:15:36;;;;;;;53.10;33.13;;;;;;;;;;4978179;28;20176;-77
2023/02/16 04:18:01;;;;;;;56.67;33.97;;;;;;;;;;4978388;28;20208;-77
2023/02/16 04:20:28;;;;;;;52.17;33.30;;;;;;;;;;4973107;28;20626;-77
2023/02/16 04:22:53;;;;;;;58.90;34.37;;;;;;;;;;4980707;28;20653;-78
2023/02/16 04:25:18;;;;;;;58.87;33.03;;;;;;;;;;4980310;28;20207;-77
2023/02/16 04:27:44;;;;;;;55.13;34.40;;;;;;;;;;4978122;28;20192;-79
2023/02/16 04:30:11;;;;;;;51.73;32.63;;;;;;;;;;4973525;28;20176;-78
2023/02/16 04:32:36;;;;;;;59.33;33.60;;;;;;;;;;4978197;28;20172;-78
2023/02/16 04:35:02;;;;;;;52.40;33.13;;;;;;;;;;4974392;28;20180;-78
2023/02/16 04:37:27;;;;;;;52.27;32.53;;;;;;;;;;4973372;28;20562;-78
2023/02/16 04:39:52;;;;;;;56.47;33.27;;;;;;;;;;4971295;28;20200;-77
2023/02/16 04:42:18;;;;;;;55.00;33.13;;;;;;;;;;4974806;28;20642;-77
2023/02/16 04:44:43;;;;;;;51.57;32.33;;;;;;;;;;4974100;28;20212;-77
2023/02/16 04:47:08;;;;;;;55.83;32.97;;;;;;;;;;4975087;28;20212;-77
2023/02/16 04:49:33;;;;;;;50.97;31.97;;;;;;;;;;4973828;28;20216;-77
2023/02/16 04:51:59;;;;;;;51.57;32.40;;;;;;;;;;4973876;28;20184;-77
2023/02/16 04:54:25;;;;;;;53.10;31.80;;;;;;;;;;4969553;28;20264;-77
2023/02/16 04:56:50;;;;;;;55.20;34.07;;;;;;;;;;4981082;28;20272;-77
2023/02/16 04:59:15;;;;;;;53.17;33.43;;;;;;;;;;4977173;28;20306;-78
2023/02/16 05:01:41;;;;;;;53.00;32.40;;;;;;;;;;4972120;28;20207;-77
2023/02/16 05:04:08;;;;;;;49.47;32.27;;;;;;;;;;4973106;28;20180;-77
2023/02/16 05:06:33;;;;;;;52.43;32.07;;;;;;;;;;4978591;28;20262;-77
2023/02/16 05:08:58;;;;;;;57.77;36.67;;;;;;;;;;4972970;28;20223;-77
2023/02/16 05:16:59;;;;;;;64.53;36.27;;;;;;;;;;4981663;28;20202;-77
2023/02/16 05:19:24;;;;;;;59.00;36.37;;;;;;;;;;4985541;28;20693;-76
2023/02/16 05:21:50;;;;;;;59.17;37.13;;;;;;;;;;4970099;28;20191;-78
2023/02/16 05:24:15;;;;;;;57.83;36.10;;;;;;;;;;4975661;28;20263;-77
2023/02/16 05:26:40;;;;;;;55.37;35.80;;;;;;;;;;4974314;28;20181;-79
2023/02/16 05:29:06;;;;;;;59.97;35.70;;;;;;;;;;4974281;28;20203;-78
2023/02/16 05:31:31;;;;;;;58.93;36.30;;;;;;;;;;4975583;28;20177;-78
2023/02/16 05:33:56;;;;;;;67.33;36.93;;;;;;;;;;4975007;28;20410;-78
2023/02/16 05:36:22;;;;;;;51.33;33.47;;;;;;;;;;4974673;28;20184;-79
2023/02/16 05:38:47;;;;;;;57.00;33.73;;;;;;;;;;4975212;28;20310;-76
2023/02/16 05:41:22;;;;;;;53.40;34.20;;;;;;;;;;4975715;28;20172;-76
2023/02/16 05:43:48;;;;;;;57.47;34.53;;;;;;;;;;4973420;28;20548;-76
2023/02/16 05:46:13;;;;;;;55.97;32.23;;;;;;;;;;4973438;28;20311;-77
2023/02/16 05:48:38;;;;;;;55.80;34.13;;;;;;;;;;4974285;28;20192;-79
2023/02/16 05:51:03;;;;;;;52.60;33.73;;;;;;;;;;4972432;28;20267;-76
2023/02/16 05:53:29;;;;;;;53.50;33.10;;;;;;;;;;4963343;28;20177;-78
2023/02/16 05:55:54;;;;;;;53.27;33.93;;;;;;;;;;4970139;28;20602;-78
2023/02/16 05:58:19;;;;;;;50.67;32.63;;;;;;;;;;4973532;28;20196;-79
2023/02/16 06:00:44;;;;;;;52.70;34.93;;;;;;;;;;4973077;28;20219;-77
2023/02/16 06:03:09;;;;;;;53.87;34.43;;;;;;;;;;4974203;28;20177;-78
2023/02/16 06:05:34;;;;;;;52.70;32.93;;;;;;;;;;4969309;28;20207;-78
2023/02/16 06:08:00;;;;;;;54.23;34.77;;;;;;;;;;4972707;28;20637;-77
2023/02/16 06:10:25;;;;;;;53.57;34.97;;;;;;;;;;4974618;28;20198;-78
2023/02/16 06:12:51;;;;;;;59.60;35.37;;;;;;;;;;4979762;28;20188;-76
2023/02/16 06:15:16;;;;;;;55.40;34.73;;;;;;;;;;4983519;28;20196;-78
2023/02/16 06:17:43;;;;;;;59.70;35.27;;;;;;;;;;4978518;28;20674;-78
2023/02/16 06:20:09;;;;;;;59.47;36.30;;;;;;;;;;4977576;28;20176;-78
2023/02/16 06:22:34;;;;;;;59.60;36.47;;;;;;;;;;4972889;28;20195;-78
2023/02/16 06:24:59;;;;;;;64.50;37.27;;;;;;;;;;4964787;28;20213;-78
2023/02/16 06:27:24;;;;;;;54.77;35.60;;;;;;;;;;4976918;28;20186;-78
2023/02/16 06:29:49;;;;;;;65.40;34.90;;;;;;;;;;4969492;28;20188;-78
2023/02/16 06:32:14;;;;;;;55.10;34.57;;;;;;;;;;4971179;28;20184;-77
2023/02/16 06:34:40;;;;;;;60.47;37.30;;;;;;;;;;4974124;28;20208;-77
2023/02/16 06:37:05;;;;;;;60.67;36.23;;;;;;;;;;4976531;28;20250;-79
2023/02/16 06:39:30;;;;;;;63.33;35.50;;;;;;;;;;4971398;28;20222;-78
2023/02/16 06:41:55;;;;;;;62.93;37.17;;;;;;;;;;4976374;28;20194;-79
2023/02/16 06:44:20;;;;;;;63.83;38.53;;;;;;;;;;4972739;28;20184;-78
2023/02/16 06:46:46;;;;;;;58.20;38.03;;;;;;;;;;4988202;28;20628;-79
2023/02/16 06:49:12;;;;;;;59.33;37.23;;;;;;;;;;4972074;28;20239;-76
2023/02/16 06:51:38;;;;;;;62.30;39.20;;;;;;;;;;4975428;28;20231;-77
2023/02/16 06:54:03;;;;;;;61.33;38.60;;;;;;;;;;4963372;28;20220;-77
2023/02/16 06:56:28;;;;;;;59.17;39.13;;;;;;;;;;4970010;28;20589;-76
2023/02/16 06:58:53;;;;;;;58.53;36.93;;;;;;;;;;4974119;28;20227;-77
2023/02/16 07:01:21;;;;;;;60.00;35.97;;;;;;;;;;4967006;28;20180;-77
2023/02/16 07:03:47;;;;;;;60.13;36.57;;;;;;;;;;4965782;28;20182;-77
2023/02/16 07:06:13;;;;;;;54.70;36.03;;;;;;;;;;4967566;28;20204;-77
2023/02/16 07:08:38;;;;;;;59.97;36.67;;;;;;;;;;4969005;28;20215;-76
2023/02/16 07:11:04;;;;;;;64.17;38.10;;;;;;;;;;4977277;28;20203;-77
2023/02/16 07:13:29;;;;;;;59.20;36.10;;;;;;;;;;4979411;28;20187;-77
2023/02/16 07:15:54;;;;;;;54.00;36.63;;;;;;;;;;4969918;28;20195;-77
2023/02/16 07:18:19;;;;;;;55.00;36.40;;;;;;;;;;4973765;28;20211;-78
2023/02/16 07:20:45;;;;;;;57.47;35.53;;;;;;;;;;4968817;28;20242;-77
2023/02/16 07:23:11;;;;;;;58.93;36.27;;;;;;;;;;4973214;28;20216;-77
2023/02/16 07:25:36;;;;;;;60.63;36.90;;;;;;;;;;4973650;28;20235;-77
2023/02/16 07:28:01;;;;;;;49.93;33.17;;;;;;;;;;4969186;28;20216;-77
2023/02/16 07:30:26;;;;;;;58.77;35.90;;;;;;;;;;4964612;28;20172;-78
2023/02/16 07:32:51;;;;;;;51.83;35.17;;;;;;;;;;4965371;28;20188;-77
2023/02/16 07:35:17;;;;;;;56.37;36.30;;;;;;;;;;4966938;28;20188;-76
2023/02/16 07:37:42;;;;;;;55.43;34.20;;;;;;;;;;4967186;28;20219;-77
2023/02/16 07:40:07;;;;;;;53.97;34.57;;;;;;;;;;4969688;28;20184;-77
2023/02/16 07:42:33;;;;;;;59.50;36.33;;;;;;;;;;4969132;28;20290;-77
2023/02/16 07:44:58;;;;;;;52.53;33.17;;;;;;;;;;4971326;28;20637;-77
2023/02/16 07:47:24;;;;;;;57.10;36.60;;;;;;;;;;4970283;28;20179;-77
2023/02/16 07:49:49;;;;;;;53.13;34.17;;;;;;;;;;4965856;28;20183;-77
2023/02/16 07:52:14;;;;;;;54.00;35.23;;;;;;;;;;4972819;28;20211;-77
2023/02/16 07:54:39;;;;;;;54.70;34.93;;;;;;;;;;4970212;28;20215;-77
2023/02/16 07:57:04;;;;;;;52.77;31.73;;;;;;;;;;4968936;28;20192;-77
2023/02/16 07:59:30;;;;;;;55.37;34.10;;;;;;;;;;4973273;28;20196;-78
2023/02/16 08:01:55;;;;;;;55.60;35.23;;;;;;;;;;4981588;28;20725;-77
2023/02/16 08:04:20;;;;;;;53.03;34.77;;;;;;;;;;4968044;28;20259;-77
2023/02/16 08:06:47;;;;;;;57.07;35.03;;;;;;;;;;4972064;28;20190;-77
2023/02/16 08:09:12;;;;;;;54.60;34.30;;;;;;;;;;4973233;28;20224;-77
2023/02/16 08:11:38;;;;;;;52.50;34.43;;;;;;;;;;4972701;28;20180;-77
2023/02/16 08:14:03;;;;;;;52.83;33.50;;;;;;;;;;4972858;28;20658;-78
2023/02/16 08:16:28;;;;;;;53.67;35.57;;;;;;;;;;4973938;28;20199;-77
2023/02/16 08:18:57;;;;;;;53.57;34.07;;;;;;;;;;4975589;28;20202;-79
2023/02/16 08:21:24;;;;;;;53.60;34.50;;;;;;;;;;4974593;28;20207;-78
2023/02/16 08:23:57;;;;;;;52.00;34.50;;;;;;;;;;4975072;28;20180;-79
2023/02/16 08:26:23;;;;;;;54.73;34.10;;;;;;;;;;4972556;28;20204;-79
2023/02/16 08:28:49;;;;;;;55.40;34.30;;;;;;;;;;4974553;28;20562;-79
2023/02/16 08:31:15;;;;;;;49.67;33.57;;;;;;;;;;4972884;28;20183;-78
2023/02/16 08:33:41;;;;;;;54.70;32.93;;;;;;;;;;4972851;28;20265;-78
2023/02/16 08:36:10;;;;;;;51.23;34.60;;;;;;;;;;4972967;28;20303;-78
2023/02/16 08:38:35;;;;;;;55.60;34.90;;;;;;;;;;4972341;28;20215;-79
2023/02/16 08:41:01;;;;;;;55.53;34.20;;;;;;;;;;4972431;28;20196;-77
2023/02/16 08:43:26;;;;;;;49.83;34.13;;;;;;;;;;4974378;28;20176;-77
2023/02/16 08:45:51;;;;;;;49.73;33.83;;;;;;;;;;4973315;28;20250;-74
2023/02/16 08:48:17;;;;;;;52.80;33.47;;;;;;;;;;4973662;28;20392;-75
2023/02/16 08:50:45;;;;;;;47.57;32.47;;;;;;;;;;4973231;28;20168;-78
2023/02/16 08:53:11;;;;;;;57.20;35.47;;;;;;;;;;4981411;28;20650;-78
2023/02/16 08:55:37;;;;;;;50.37;33.50;;;;;;;;;;4972000;28;20243;-77
2023/02/16 08:58:02;;;;;;;56.87;36.47;;;;;;;;;;4968031;28;20210;-77
2023/02/16 09:00:33;;;;;;;51.67;34.20;;;;;;;;;;4974819;28;20173;-78
2023/02/16 09:02:59;;;;;;;56.00;34.97;;;;;;;;;;4975345;28;20184;-77
2023/02/16 09:05:24;;;;;;;58.43;34.60;;;;;;;;;;4970915;28;20227;-78
2023/02/16 09:07:51;;;;;;;52.33;34.57;;;;;;;;;;4972320;28;20204;-78
2023/02/16 09:10:17;;;;;;;54.90;35.67;;;;;;;;;;4975001;28;20181;-78
2023/02/16 09:12:42;;;;;;;56.87;36.67;;;;;;;;;;4973591;28;20569;-77
2023/02/16 09:15:08;;;;;;;56.43;36.40;;;;;;;;;;4972582;28;20177;-78
2023/02/16 09:17:33;;;;;;;55.63;35.60;;;;;;;;;;4974021;28;20188;-77
2023/02/16 09:19:58;;;;;;;56.10;36.03;;;;;;;;;;4975609;28;20259;-77
2023/02/16 09:22:23;;;;;;;57.83;36.20;;;;;;;;;;4976706;28;20191;-77
2023/02/16 09:24:49;;;;;;;58.10;36.97;;;;;;;;;;4971565;28;20586;-77
2023/02/16 09:27:14;;;;;;;53.30;35.67;;;;;;;;;;4974089;28;20187;-77
2023/02/16 09:29:39;;;;;;;57.77;38.20;;;;;;;;;;4973548;28;20595;-77
2023/02/16 09:32:05;;;;;;;61.53;37.53;;;;;;;;;;4975622;28;20174;-78
2023/02/16 09:34:30;;;;;;;57.83;36.20;;;;;;;;;;4975462;28;20187;-78
2023/02/16 09:36:55;;;;;;;51.70;34.97;;;;;;;;;;4973192;28;20188;-78
2023/02/16 09:39:21;;;;;;;54.03;35.30;;;;;;;;;;4974763;28;20589;-77
2023/02/16 09:41:58;;;;;;;58.33;36.60;;;;;;;;;;4975397;28;20191;-77
2023/02/16 09:44:30;;;;;;;58.10;36.13;;;;;;;;;;4974849;28;20176;-77
2023/02/16 09:46:56;;;;;;;71.83;37.70;;;;;;;;;;4974380;28;20670;-77
2023/02/16 09:49:28;;;;;;;56.93;35.40;;;;;;;;;;4970377;28;20201;-76
2023/02/16 09:52:20;;;;;;;58.63;36.17;;;;;;;;;;4969442;28;20311;-76
2023/02/16 09:54:45;;;;;;;54.30;33.77;;;;;;;;;;4973788;28;20196;-77
2023/02/16 09:57:30;;;;;;;59.93;36.37;;;;;;;;;;4972042;28;20184;-76
2023/02/16 10:00:03;;;;;;;55.70;36.93;;;;;;;;;;4971816;28;20204;-77
2023/02/16 10:02:47;;;;;;;59.27;37.20;;;;;;;;;;4982241;28;20556;-77
2023/02/16 10:05:13;;;;;;;57.97;37.37;;;;;;;;;;4972768;28;20204;-76
2023/02/16 10:07:42;;;;;;;58.17;35.90;;;;;;;;;;4963056;28;20180;-77
2023/02/16 10:10:12;;;;;;;56.40;38.57;;;;;;;;;;4971508;28;20178;-76
2023/02/16 10:12:38;;;;;;;57.87;36.40;;;;;;;;;;4967885;28;20180;-76
2023/02/16 10:15:19;;;;;;;57.67;35.07;;;;;;;;;;4972999;28;20177;-76
2023/02/16 10:17:47;;;;;;;56.27;35.67;;;;;;;;;;4970120;28;20704;-77
2023/02/16 10:20:18;;;;;;;55.07;35.57;;;;;;;;;;4971843;28;20555;-77
2023/02/16 10:22:48;;;;;;;57.20;37.50;;;;;;;;;;4972547;28;20176;-77
2023/02/16 10:25:13;;;;;;;52.17;34.20;;;;;;;;;;4974533;28;20208;-76
2023/02/16 10:27:40;;;;;;;52.63;34.77;;;;;;;;;;4973556;28;20769;-77
2023/02/16 10:30:15;;;;;;;54.53;35.37;;;;;;;;;;4974863;28;20697;-78
2023/02/16 10:32:53;;;;;;;55.33;35.77;;;;;;;;;;4974088;28;20677;-77
2023/02/16 10:35:21;;;;;;;54.60;35.13;;;;;;;;;;4972424;28;20191;-77
2023/02/16 10:38:01;;;;;;;50.87;33.17;;;;;;;;;;4973069;28;20311;-76
2023/02/16 10:40:30;;;;;;;51.83;34.97;;;;;;;;;;4973660;28;20762;-77
2023/02/16 10:43:14;;;;;;;54.47;34.60;;;;;;;;;;4975030;28;20230;-77
2023/02/16 10:45:42;;;;;;;47.90;32.37;;;;;;;;;;4975414;28;20200;-77
2023/02/16 10:48:08;;;;;;;51.07;34.20;;;;;;;;;;4973003;28;20196;-77
2023/02/16 10:50:41;;;;;;;52.87;35.33;;;;;;;;;;4972827;28;20239;-77
2023/02/16 10:53:14;;;;;;;51.13;33.17;;;;;;;;;;4975375;28;20259;-77
2023/02/16 10:55:40;;;;;;;49.27;33.90;;;;;;;;;;4974850;28;20555;-77
2023/02/16 10:58:12;;;;;;;49.73;33.97;;;;;;;;;;4966613;28;20203;-77
2023/02/16 11:00:50;;;;;;;57.87;35.23;;;;;;;;;;4971372;28;20191;-77
2023/02/16 11:03:18;;;;;;;47.53;33.23;;;;;;;;;;4974409;28;20227;-77
2023/02/16 11:05:43;;;;;;;53.13;33.77;;;;;;;;;;4972537;28;20269;-76
2023/02/16 11:08:11;;;;;;;49.63;33.83;;;;;;;;;;4964858;28;20749;-77
2023/02/16 11:10:36;;;;;;;53.70;35.27;;;;;;;;;;4972915;28;20168;-78
2023/02/16 11:13:02;;;;;;;46.90;32.40;;;;;;;;;;4974047;28;20612;-77
2023/02/16 11:15:28;;;;;;;54.83;34.53;;;;;;;;;;4973503;28;20176;-75
2023/02/16 11:17:55;;;;;;;51.37;33.13;;;;;;;;;;4975428;28;20212;-78
2023/02/16 11:20:49;;;;;;;50.93;35.50;;;;;;;;;;4969878;28;21656;-78
2023/02/16 11:23:24;;;;;;;47.70;32.60;;;;;;;;;;4973716;28;20190;-77
2023/02/16 11:26:04;;;;;;;51.23;33.17;;;;;;;;;;4976337;28;20209;-77
2023/02/16 11:28:37;;;;;;;51.30;34.60;;;;;;;;;;4977272;28;20191;-78
2023/02/16 11:31:09;;;;;;;44.87;32.27;;;;;;;;;;4975666;28;20195;-77
2023/02/16 11:33:36;;;;;;;45.63;33.40;;;;;;;;;;4978491;28;20181;-77
2023/02/16 11:36:04;;;;;;;49.13;33.63;;;;;;;;;;4977736;28;20239;-76
2023/02/16 11:38:34;;;;;;;44.23;32.23;;;;;;;;;;4974477;28;20227;-77
2023/02/16 11:41:00;;;;;;;46.73;32.50;;;;;;;;;;4976455;28;20188;-77
2023/02/16 11:43:28;;;;;;;46.40;32.80;;;;;;;;;;4976648;28;20184;-76
2023/02/16 11:46:14;;;;;;;45.60;31.40;;;;;;;;;;4976823;28;20686;-76
2023/02/16 11:48:39;;;;;;;46.30;31.40;;;;;;;;;;4975644;28;20367;-78
2023/02/16 11:51:06;;;;;;;49.05;33.08;;;;;;;;;;4974831;28;20215;-75
2023/02/16 11:53:32;;;;;;;46.25;31.42;;;;;;;;;;4975173;28;20172;-76
2023/02/16 11:56:13;;;;;;;46.97;33.35;;;;;;;;;;4972538;28;20185;-76
2023/02/16 11:58:38;;;;;;;43.05;31.08;;;;;;;;;;4973747;28;20231;-77
2023/02/16 12:01:16;;;;;;;41.40;29.55;;;;;;;;;;4977273;28;20188;-78
2023/02/16 12:03:55;;;;;;;47.72;32.08;;;;;;;;;;4987814;28;20176;-77
2023/02/16 12:06:41;;;;;;;42.88;28.90;;;;;;;;;;4973585;28;20193;-77
2023/02/16 12:09:10;;;;;;;48.63;32.55;;;;;;;;;;4987072;28;20611;-77
2023/02/16 12:11:39;;;;;;;40.67;29.10;;;;;;;;;;4977045;28;20168;-77
2023/02/16 12:14:10;;;;;;;46.10;29.50;;;;;;;;;;4977104;28;20176;-77
2023/02/16 12:16:59;;;;;;;47.33;29.95;;;;;;;;;;4975681;28;20180;-76
2023/02/16 12:19:27;;;;;;;47.90;30.97;;;;;;;;;;4959633;28;20208;-77
2023/02/16 12:22:05;;;;;;;46.65;32.70;;;;;;;;;;4971881;28;20223;-77
2023/02/16 12:24:44;;;;;;;43.10;31.20;;;;;;;;;;4970391;28;20658;-76
2023/02/16 12:27:22;;;;;;;40.33;30.80;;;;;;;;;;4974887;28;20183;-77
2023/02/16 12:30:10;;;;;;;48.85;30.55;;;;;;;;;;4971721;28;20716;-77
2023/02/16 12:32:48;;;;;;;43.17;30.88;;;;;;;;;;4971618;28;20165;-77
2023/02/16 12:35:31;;;;;;;39.88;27.38;;;;;;;;;;4974077;28;20680;-77
2023/02/16 12:37:56;;;;;;;46.08;28.92;;;;;;;;;;4977295;28;20303;-77
2023/02/16 12:40:37;;;;;;;38.20;28.92;;;;;;;;;;4976367;28;20288;-77
2023/02/16 12:43:14;;;;;;;41.17;29.10;;;;;;;;;;4976809;28;20206;-77
2023/02/16 12:45:41;;;;;;;41.40;28.55;;;;;;;;;;4975516;28;20558;-78
2023/02/16 12:48:10;;;;;;;38.35;27.45;;;;;;;;;;4977002;28;20207;-76
2023/02/16 12:50:35;;;;;;;42.58;28.13;;;;;;;;;;4964525;28;20181;-76
2023/02/16 12:53:14;;;;;;;40.25;29.20;;;;;;;;;;4970984;28;20180;-76
2023/02/16 12:55:39;;;;;;;41.15;27.25;;;;;;;;;;4968737;28;20553;-75
2023/02/16 12:58:13;;;;;;;39.77;28.03;;;;;;;;;;4974428;28;20200;-78
2023/02/16 13:00:47;;;;;;;37.78;26.33;;;;;;;;;;4975213;28;20489;-77
2023/02/16 13:03:18;;;;;;;41.40;27.30;;;;;;;;;;4975746;28;20314;-76
2023/02/16 13:05:46;;;;;;;35.17;24.83;;;;;;;;;;4974074;28;20192;-75
2023/02/16 13:08:23;;;;;;;35.65;25.38;;;;;;;;;;4974919;28;20232;-76
2023/02/16 13:11:09;;;;;;;33.60;25.52;;;;;;;;;;4974018;28;20657;-75
2023/02/16 13:13:35;;;;;;;34.40;23.70;;;;;;;;;;4974337;28;20211;-76
2023/02/16 13:16:05;;;;;;;33.28;24.08;;;;;;;;;;4975193;28;20212;-76
2023/02/16 13:18:31;;;;;;;34.38;23.98;;;;;;;;;;4955854;28;20208;-75
2023/02/16 13:21:07;;;;;;;34.25;23.73;;;;;;;;;;4974752;28;20327;-77
2023/02/16 13:23:37;;;;;;;31.45;21.45;;;;;;;;;;4975611;28;20176;-77
2023/02/16 13:26:11;;;;;;;28.83;21.30;;;;;;;;;;4975430;28;20218;-78
2023/02/16 13:28:42;;;;;;;24.08;19.25;;;;;;;;;;4973941;28;20287;-77
2023/02/16 13:31:30;;;;;;;24.02;19.50;;;;;;;;;;4971846;28;20176;-76
2023/02/16 13:33:55;;;;;;;28.98;19.65;;;;;;;;;;4969887;28;20549;-77
2023/02/16 13:36:21;;;;;;;25.47;20.20;;;;;;;;;;4975726;28;20180;-78
2023/02/16 13:39:06;;;;;;;26.73;18.95;;;;;;;;;;4976813;28;20458;-77
2023/02/16 13:41:50;;;;;;;31.98;18.90;;;;;;;;;;4972082;28;20278;-76
2023/02/16 13:44:17;;;;;;;25.33;18.73;;;;;;;;;;4976533;28;20184;-78
2023/02/16 13:46:45;;;;;;;25.92;18.00;;;;;;;;;;4974845;28;20255;-78
2023/02/16 13:49:29;;;;;;;29.50;19.13;;;;;;;;;;4975120;28;20371;-77
2023/02/16 13:51:54;;;;;;;25.00;17.35;;;;;;;;;;4964562;28;20188;-76
2023/02/16 13:54:27;;;;;;;25.30;18.45;;;;;;;;;;4970088;28;20177;-77
2023/02/16 13:56:52;;;;;;;26.85;17.83;;;;;;;;;;4975841;28;20231;-77
2023/02/16 13:59:18;;;;;;;23.00;16.70;;;;;;;;;;4973544;28;20196;-77
2023/02/16 14:01:43;;;;;;;27.42;18.50;;;;;;;;;;4974213;28;20176;-77
2023/02/16 14:04:29;;;;;;;24.83;17.00;;;;;;;;;;4973390;28;20494;-77
2023/02/16 14:07:00;;;;;;;27.80;17.25;;;;;;;;;;4974528;28;20342;-77
2023/02/16 14:09:52;;;;;;;23.13;16.92;;;;;;;;;;4972006;28;20628;-77
2023/02/16 14:12:20;;;;;;;29.17;17.55;;;;;;;;;;4971782;28;20693;-77
2023/02/16 14:14:54;;;;;;;22.38;16.30;;;;;;;;;;4974894;28;20595;-77
2023/02/16 14:17:22;;;;;;;24.10;15.98;;;;;;;;;;4969940;28;20186;-77
2023/02/16 14:20:07;;;;;;;26.02;16.80;;;;;;;;;;4969906;28;20176;-79
2023/02/16 14:22:41;;;;;;;23.70;15.90;;;;;;;;;;4972270;28;20191;-79
2023/02/16 14:25:19;;;;;;;22.90;17.00;;;;;;;;;;4969932;28;20239;-77
2023/02/16 14:27:46;;;;;;;20.15;14.48;;;;;;;;;;4973290;28;20210;-79
2023/02/16 14:30:16;;;;;;;18.92;13.20;;;;;;;;;;4974095;28;20185;-79
2023/02/16 14:32:44;;;;;;;22.67;14.68;;;;;;;;;;4969722;28;20238;-79
2023/02/16 14:35:25;;;;;;;23.50;15.98;;;;;;;;;;4974247;28;20195;-79
2023/02/16 14:37:51;;;;;;;20.90;14.70;;;;;;;;;;4975201;28;20208;-79
2023/02/16 14:40:37;;;;;;;25.02;17.75;;;;;;;;;;4974171;28;20180;-79
2023/02/16 14:43:04;;;;;;;23.27;17.05;;;;;;;;;;4988236;28;20339;-79
2023/02/16 14:45:44;;;;;;;22.92;15.88;;;;;;;;;;4972793;28;20609;-79
2023/02/16 14:48:26;;;;;;;22.00;15.93;;;;;;;;;;4970304;28;20294;-78
2023/02/16 14:51:10;;;;;;;22.70;16.48;;;;;;;;;;4974473;28;20590;-78
2023/02/16 14:53:53;;;;;;;24.33;16.45;;;;;;;;;;4974155;28;20180;-78
2023/02/16 14:56:19;;;;;;;28.42;16.63;;;;;;;;;;4971110;28;20235;-79
2023/02/16 14:58:53;;;;;;;22.20;15.18;;;;;;;;;;4970888;28;20208;-78
2023/02/16 15:01:20;;;;;;;19.75;15.38;;;;;;;;;;4972932;28;20597;-79
2023/02/16 15:03:46;;;;;;;22.83;16.05;;;;;;;;;;4970338;28;20237;-78
2023/02/16 15:06:30;;;;;;;24.80;16.42;;;;;;;;;;4971905;28;20210;-77